Time;durP1;ratioP1;P1;durP2;ratioP2;P2;SDS_P1;SDS_P2;PMS_P1;PMS_P2;Temp;Humidity;BMP_temperature;BMP_pressure;BME280_temperature;BME280_humidity;BME280_pressure;Samples;Min_cycle;Max_cycle;Signal;HPM_P1;HPM_P2
2021/04/14 00:00:26;;;;;;;4.80;2.28;;;19.40;58.50;;;;;;4147281;28;20970;-52
2021/04/14 00:02:28;;;;;;;5.30;2.17;;;19.40;58.40;;;;;;4147713;28;20106;-58
2021/04/14 00:04:30;;;;;;;4.65;2.30;;;19.50;58.50;;;;;;4148067;28;20026;-59
2021/04/14 00:06:37;;;;;;;3.28;2.30;;;19.40;58.50;;;;;;4148442;28;20037;-57
2021/04/14 00:08:39;;;;;;;5.35;2.47;;;19.40;58.40;;;;;;4148734;28;20532;-56
2021/04/14 00:10:41;;;;;;;6.25;2.10;;;19.50;58.40;;;;;;4149398;28;20439;-60
2021/04/14 00:12:43;;;;;;;5.43;2.33;;;19.50;58.40;;;;;;4147457;28;20363;-57
2021/04/14 00:14:46;;;;;;;6.45;2.40;;;19.50;58.60;;;;;;4145164;28;20449;-59
2021/04/14 00:16:48;;;;;;;5.63;2.42;;;19.50;58.40;;;;;;4151292;28;20394;-58
2021/04/14 00:18:51;;;;;;;5.45;2.80;;;19.50;58.90;;;;;;4146977;28;20057;-58
2021/04/14 00:20:54;;;;;;;5.55;2.42;;;19.50;58.20;;;;;;4149179;28;20026;-57
2021/04/14 00:22:56;;;;;;;3.75;2.13;;;19.50;58.50;;;;;;4149922;28;20337;-55
2021/04/14 00:24:58;;;;;;;4.90;2.15;;;19.50;58.40;;;;;;4152258;28;20045;-56
2021/04/14 00:27:00;;;;;;;4.90;2.28;;;19.50;58.30;;;;;;4147487;28;20047;-58
2021/04/14 00:29:02;;;;;;;5.38;2.33;;;19.60;58.30;;;;;;4150970;28;20536;-54
2021/04/14 00:31:05;;;;;;;4.50;2.42;;;19.60;58.60;;;;;;4149796;28;20041;-48
2021/04/14 00:33:07;;;;;;;3.95;2.20;;;19.60;59.00;;;;;;4150967;28;20043;-56
2021/04/14 00:35:10;;;;;;;5.50;2.47;;;19.60;58.80;;;;;;4145461;28;21442;-56
2021/04/14 00:37:12;;;;;;;6.50;2.03;;;19.70;59.50;;;;;;4152466;28;20109;-58
2021/04/14 00:39:22;;;;;;;4.07;1.97;;;19.80;59.20;;;;;;4148904;28;20045;-59
2021/04/14 00:41:24;;;;;;;7.30;2.60;;;19.80;58.90;;;;;;4147908;28;20057;-59
2021/04/14 00:43:31;;;;;;;8.18;2.50;;;19.80;58.40;;;;;;4147518;28;20067;-61
2021/04/14 00:45:33;;;;;;;7.82;2.10;;;19.80;58.30;;;;;;4149121;28;20037;-60
2021/04/14 00:47:35;;;;;;;5.57;2.10;;;19.90;58.20;;;;;;4149217;28;20443;-59
2021/04/14 00:49:37;;;;;;;4.88;2.38;;;19.90;58.20;;;;;;4147039;28;20037;-62
2021/04/14 00:51:41;;;;;;;3.67;2.05;;;19.90;58.10;;;;;;4149787;28;20407;-59
2021/04/14 00:53:43;;;;;;;3.72;1.83;;;19.90;58.00;;;;;;4147366;28;20348;-58
2021/04/14 00:55:46;;;;;;;4.95;1.88;;;19.90;58.10;;;;;;4153756;28;20047;-61
2021/04/14 00:57:48;;;;;;;4.93;2.10;;;19.90;58.40;;;;;;4142817;28;20073;-61
2021/04/14 00:59:50;;;;;;;8.27;1.90;;;20.00;58.10;;;;;;4148602;28;20367;-59
2021/04/14 01:01:52;;;;;;;12.85;1.95;;;20.00;58.00;;;;;;4148902;28;20048;-62
2021/04/14 01:03:55;;;;;;;4.63;2.08;;;20.00;57.80;;;;;;4149178;28;20467;-61
2021/04/14 01:05:59;;;;;;;6.03;2.15;;;20.00;57.70;;;;;;4147973;28;20037;-58
2021/04/14 01:08:00;;;;;;;;;;;20.10;57.60;;;;;;4149389;28;20510;-59
2021/04/14 01:10:03;;;;;;;10.15;2.78;;;20.10;58.10;;;;;;4150253;28;19912;-59
2021/04/14 01:12:06;;;;;;;9.68;2.38;;;20.10;57.80;;;;;;4149628;28;20080;-52
2021/04/14 01:14:09;;;;;;;15.80;2.20;;;20.10;57.10;;;;;;4144054;28;20061;-60
2021/04/14 01:16:11;;;;;;;11.20;2.20;;;20.10;56.70;;;;;;4146360;28;20037;-58
2021/04/14 01:18:20;;;;;;;5.93;1.70;;;20.10;57.10;;;;;;4142592;28;20038;-58
2021/04/14 01:20:23;;;;;;;8.60;1.65;;;20.10;57.20;;;;;;4143456;28;20041;-59
2021/04/14 01:22:25;;;;;;;7.45;1.70;;;20.20;57.60;;;;;;4147762;28;20042;-59
2021/04/14 01:24:27;;;;;;;6.68;1.55;;;20.20;57.70;;;;;;4144594;28;20038;-59
2021/04/14 01:26:29;;;;;;;5.60;1.40;;;20.20;57.60;;;;;;4130059;28;20029;-53
2021/04/14 01:28:35;;;;;;;10.90;1.60;;;20.20;57.70;;;;;;4143541;28;20149;-55
2021/04/14 01:30:38;;;;;;;3.58;1.25;;;20.20;57.70;;;;;;4142807;28;20033;-58
2021/04/14 01:32:40;;;;;;;3.87;1.70;;;20.30;57.70;;;;;;4140095;28;20042;-58
2021/04/14 01:34:42;;;;;;;7.25;1.55;;;20.30;57.50;;;;;;4146555;28;20145;-58
2021/04/14 01:36:44;;;;;;;4.25;1.25;;;20.30;57.50;;;;;;4144844;28;20521;-59
2021/04/14 01:38:47;;;;;;;1.98;1.10;;;20.30;57.40;;;;;;4146069;28;20162;-58
2021/04/14 01:40:50;;;;;;;3.03;1.30;;;20.40;57.30;;;;;;4145979;28;20447;-59
2021/04/14 01:42:53;;;;;;;3.40;1.13;;;20.40;57.30;;;;;;4146445;28;20041;-59
2021/04/14 01:44:55;;;;;;;2.80;1.20;;;20.40;57.00;;;;;;4145394;28;20029;-59
2021/04/14 01:46:57;;;;;;;4.57;0.95;;;20.50;57.30;;;;;;4146213;28;20025;-59
2021/04/14 01:48:59;;;;;;;1.80;0.95;;;20.50;57.20;;;;;;4145362;28;20038;-59
2021/04/14 01:51:01;;;;;;;1.67;1.20;;;20.50;57.00;;;;;;4145363;28;20528;-51
2021/04/14 01:53:05;;;;;;;2.05;1.05;;;20.50;56.90;;;;;;4145200;28;20052;-56
2021/04/14 01:55:09;;;;;;;1.67;1.05;;;20.60;56.80;;;;;;4151286;28;20403;-50
2021/04/14 01:57:10;;;;;;;;;;;20.60;56.60;;;;;;4148702;28;20045;-53
2021/04/14 01:59:12;;;;;;;3.95;1.33;;;20.70;56.20;;;;;;4146739;28;19956;-50
2021/04/14 02:01:16;;;;;;;3.03;0.90;;;20.70;55.60;;;;;;4146276;28;20853;-50
2021/04/14 02:03:19;;;;;;;1.67;0.98;;;20.70;55.70;;;;;;4147052;28;20225;-50
2021/04/14 02:05:27;;;;;;;3.53;1.17;;;20.70;55.40;;;;;;4146148;28;20048;-51
2021/04/14 02:07:29;;;;;;;8.73;1.10;;;20.70;55.60;;;;;;4146175;28;20259;-50
2021/04/14 02:09:31;;;;;;;3.33;0.90;;;20.70;55.40;;;;;;4145014;28;20045;-57
2021/04/14 02:11:34;;;;;;;2.58;1.20;;;20.70;55.20;;;;;;4146166;28;20037;-51
2021/04/14 02:13:38;;;;;;;3.50;1.17;;;20.70;55.40;;;;;;4146960;28;20460;-51
2021/04/14 02:15:41;;;;;;;1.98;1.25;;;20.70;55.20;;;;;;4147395;28;20081;-50
2021/04/14 02:17:43;;;;;;;1.90;1.10;;;20.70;55.00;;;;;;4143121;28;20125;-47
2021/04/14 02:19:46;;;;;;;2.08;1.10;;;20.70;55.10;;;;;;4129358;28;20030;-51
2021/04/14 02:21:48;;;;;;;2.05;1.33;;;20.70;54.90;;;;;;4133039;28;20056;-49
2021/04/14 02:23:51;;;;;;;1.85;1.17;;;20.80;54.80;;;;;;4138007;28;20465;-51
2021/04/14 02:25:58;;;;;;;3.53;1.33;;;20.70;54.60;;;;;;4149347;28;20084;-50
2021/04/14 02:28:00;;;;;;;2.05;1.23;;;20.80;54.60;;;;;;4149772;28;20378;-52
2021/04/14 02:30:07;;;;;;;1.73;0.95;;;20.80;54.70;;;;;;4150864;28;20450;-53
2021/04/14 02:32:09;;;;;;;3.80;1.05;;;20.80;54.50;;;;;;4148941;28;20061;-46
2021/04/14 02:34:15;;;;;;;2.47;1.10;;;20.80;54.60;;;;;;4137659;28;20064;-52
2021/04/14 02:36:17;;;;;;;1.25;0.85;;;20.90;54.50;;;;;;4141563;28;20052;-49
2021/04/14 02:38:20;;;;;;;1.20;0.90;;;20.90;54.50;;;;;;4149395;28;20034;-48
2021/04/14 02:40:23;;;;;;;5.72;1.30;;;20.90;54.10;;;;;;4151907;28;20122;-48
2021/04/14 02:42:25;;;;;;;2.92;1.05;;;20.90;53.80;;;;;;4148696;28;20155;-52
2021/04/14 02:44:27;;;;;;;2.17;0.93;;;20.90;53.10;;;;;;4150259;28;20045;-47
2021/04/14 02:46:30;;;;;;;1.65;0.98;;;20.90;53.10;;;;;;4145579;28;20148;-49
2021/04/14 02:48:32;;;;;;;;;;;20.90;53.10;;;;;;4150319;28;20111;-51
2021/04/14 02:50:34;;;;;;;2.55;1.00;;;20.90;52.80;;;;;;4150108;28;20361;-48
2021/04/14 02:52:36;;;;;;;1.55;1.00;;;20.90;53.10;;;;;;4151755;28;20084;-47
2021/04/14 02:54:38;;;;;;;2.28;1.02;;;21.00;53.30;;;;;;4143374;28;20038;-50
2021/04/14 02:56:40;;;;;;;2.53;1.27;;;21.00;53.50;;;;;;4152423;28;20502;-52
2021/04/14 02:58:42;;;;;;;4.07;0.98;;;21.00;53.60;;;;;;4149449;28;20084;-47
2021/04/14 03:00:44;;;;;;;2.30;0.88;;;21.10;53.80;;;;;;4147027;28;20145;-51
2021/04/14 03:02:47;;;;;;;2.03;0.90;;;21.10;53.90;;;;;;4145077;28;20158;-48
2021/04/14 03:04:49;;;;;;;2.78;1.40;;;21.10;54.00;;;;;;4153345;28;20021;-46
2021/04/14 03:06:51;;;;;;;1.55;0.88;;;21.20;54.10;;;;;;4149189;28;20226;-47
2021/04/14 03:08:53;;;;;;;2.50;1.35;;;21.20;54.20;;;;;;4146604;28;20348;-49
2021/04/14 03:10:56;;;;;;;3.53;1.23;;;21.20;54.20;;;;;;4144903;28;20454;-51
2021/04/14 03:12:59;;;;;;;3.28;1.00;;;21.20;54.10;;;;;;4150330;28;20037;-51
2021/04/14 03:15:01;;;;;;;5.25;1.08;;;21.30;54.10;;;;;;4149202;28;20525;-52
2021/04/14 03:17:03;;;;;;;1.65;0.93;;;21.30;53.90;;;;;;4145034;28;20030;-51
2021/04/14 03:19:05;;;;;;;1.73;1.00;;;21.40;54.00;;;;;;4134473;28;20454;-51
2021/04/14 03:21:07;;;;;;;3.45;1.30;;;21.40;54.00;;;;;;4145723;28;20041;-46
2021/04/14 03:23:14;;;;;;;2.58;1.02;;;21.50;54.00;;;;;;4144043;28;20037;-47
2021/04/14 03:25:17;;;;;;;2.20;0.98;;;21.50;53.90;;;;;;4149613;28;20168;-46
2021/04/14 03:27:19;;;;;;;2.47;1.10;;;21.60;53.80;;;;;;4146311;28;20063;-47
2021/04/14 03:29:21;;;;;;;2.63;1.15;;;21.60;53.60;;;;;;4146149;28;20041;-50
2021/04/14 03:31:26;;;;;;;3.28;1.27;;;21.70;53.70;;;;;;4148905;28;20029;-47
2021/04/14 03:33:28;;;;;;;1.90;1.02;;;21.70;53.50;;;;;;4146329;28;20118;-47
2021/04/14 03:35:31;;;;;;;1.92;0.90;;;21.70;53.40;;;;;;4153219;28;20033;-50
2021/04/14 03:37:33;;;;;;;3.38;1.27;;;21.80;53.60;;;;;;4146701;28;20315;-47
2021/04/14 03:39:35;;;;;;;1.58;0.98;;;21.80;53.50;;;;;;4152076;28;20464;-49
2021/04/14 03:41:37;;;;;;;3.78;1.08;;;21.90;53.50;;;;;;4140927;28;20452;-52
2021/04/14 03:43:39;;;;;;;2.35;0.95;;;21.90;53.20;;;;;;4127275;28;20025;-49
2021/04/14 03:45:44;;;;;;;1.33;0.90;;;22.00;53.40;;;;;;4142624;28;20037;-51
2021/04/14 03:47:46;;;;;;;2.40;0.93;;;22.00;53.30;;;;;;4141604;28;20065;-50
2021/04/14 03:49:52;;;;;;;3.27;1.00;;;22.10;53.10;;;;;;4131235;28;20055;-52
2021/04/14 03:51:54;;;;;;;1.45;1.08;;;22.10;53.30;;;;;;4150234;28;20298;-48
2021/04/14 03:53:56;;;;;;;1.88;0.90;;;22.20;53.30;;;;;;4148283;28;20754;-48
2021/04/14 03:56:01;;;;;;;2.08;0.90;;;22.20;53.20;;;;;;4140693;28;20018;-54
2021/04/14 03:58:03;;;;;;;2.45;0.90;;;22.30;53.20;;;;;;4143779;28;20021;-50
2021/04/14 04:00:10;;;;;;;1.05;0.90;;;22.30;53.10;;;;;;4134802;28;20037;-54
2021/04/14 04:02:12;;;;;;;1.73;1.08;;;22.40;53.00;;;;;;4128835;28;20050;-48
2021/04/14 04:04:14;;;;;;;1.75;0.93;;;22.50;53.20;;;;;;4149994;28;20029;-51
2021/04/14 04:06:16;;;;;;;2.50;1.13;;;22.50;52.90;;;;;;4148130;28;20045;-50
2021/04/14 04:08:19;;;;;;;2.78;1.20;;;22.60;53.00;;;;;;4148359;28;20047;-47
2021/04/14 04:10:21;;;;;;;2.90;1.17;;;22.70;53.50;;;;;;4152097;28;20414;-50
2021/04/14 04:12:23;;;;;;;3.33;1.13;;;22.70;52.70;;;;;;4145353;28;20231;-47
2021/04/14 04:14:28;;;;;;;3.03;1.00;;;22.70;52.60;;;;;;4141405;28;20443;-49
2021/04/14 04:16:30;;;;;;;1.98;1.00;;;22.80;52.70;;;;;;4147363;28;20514;-47
2021/04/14 04:18:35;;;;;;;3.83;1.33;;;22.80;52.60;;;;;;4149181;28;20033;-58
2021/04/14 04:20:38;;;;;;;4.30;1.00;;;22.90;52.60;;;;;;4145460;28;20504;-60
2021/04/14 04:22:40;;;;;;;3.28;1.17;;;22.90;52.10;;;;;;4142864;28;20085;-61
2021/04/14 04:24:42;;;;;;;1.55;1.05;;;23.00;52.00;;;;;;4149636;28;20100;-61
2021/04/14 04:26:44;;;;;;;2.30;1.05;;;23.00;52.00;;;;;;4154643;28;20037;-57
2021/04/14 04:28:46;;;;;;;5.30;1.52;;;23.10;52.00;;;;;;4150829;28;20018;-52
2021/04/14 04:30:50;;;;;;;2.92;1.38;;;23.10;52.10;;;;;;4130429;28;20046;-55
2021/04/14 04:32:52;;;;;;;6.80;1.45;;;23.10;52.00;;;;;;4136008;28;20029;-56
2021/04/14 04:34:55;;;;;;;3.85;1.20;;;23.10;52.30;;;;;;4146165;28;20033;-61
2021/04/14 04:36:57;;;;;;;3.28;0.85;;;23.10;52.00;;;;;;4151087;28;20022;-59
2021/04/14 04:38:59;;;;;;;3.25;1.10;;;23.10;51.80;;;;;;4144265;28;20671;-60
2021/04/14 04:41:02;;;;;;;6.95;1.33;;;23.10;52.10;;;;;;4143559;28;20108;-55
2021/04/14 04:43:04;;;;;;;5.20;1.10;;;23.10;52.20;;;;;;4128212;28;20030;-59
2021/04/14 04:45:09;;;;;;;3.67;1.40;;;23.10;52.10;;;;;;4135517;28;20040;-59
2021/04/14 04:47:11;;;;;;;4.75;1.25;;;23.20;52.10;;;;;;4143499;28;20510;-59
2021/04/14 04:49:13;;;;;;;3.83;1.05;;;23.10;51.90;;;;;;4146111;28;20120;-58
2021/04/14 04:51:15;;;;;;;4.53;1.27;;;23.10;52.10;;;;;;4130995;28;20057;-60
2021/04/14 04:53:20;;;;;;;4.63;1.13;;;23.10;52.20;;;;;;4133570;28;20041;-54
2021/04/14 04:55:23;;;;;;;2.13;1.08;;;23.10;52.20;;;;;;4146102;28;20083;-58
2021/04/14 04:57:25;;;;;;;2.93;1.13;;;23.10;52.10;;;;;;4147862;28;20052;-58
2021/04/14 04:59:27;;;;;;;2.22;1.33;;;23.10;52.20;;;;;;4146077;28;20381;-55
2021/04/14 05:01:30;;;;;;;4.65;1.25;;;23.10;51.90;;;;;;4150107;28;20048;-57
2021/04/14 05:03:32;;;;;;;1.95;1.10;;;23.10;52.10;;;;;;4148452;28;20541;-58
2021/04/14 05:05:37;;;;;;;1.73;1.10;;;23.10;52.20;;;;;;4150372;28;20217;-57
2021/04/14 05:07:40;;;;;;;4.30;1.25;;;23.20;52.40;;;;;;4149243;28;20034;-53
2021/04/14 05:09:42;;;;;;;4.47;1.33;;;23.10;52.80;;;;;;4147988;28;20119;-59
2021/04/14 05:11:44;;;;;;;6.45;1.60;;;23.20;52.60;;;;;;4147829;28;20049;-56
2021/04/14 05:13:48;;;;;;;2.13;1.40;;;23.20;52.50;;;;;;4131937;28;20088;-58
2021/04/14 05:15:50;;;;;;;4.50;1.50;;;23.30;52.60;;;;;;4145308;28;20049;-60
2021/04/14 05:17:52;;;;;;;3.72;1.17;;;23.30;52.40;;;;;;4148655;28;20171;-57
2021/04/14 05:19:55;;;;;;;4.20;1.20;;;23.30;52.50;;;;;;4147087;28;20659;-59
2021/04/14 05:21:57;;;;;;;1.63;1.02;;;23.30;52.40;;;;;;4150164;28;20034;-60
2021/04/14 05:23:59;;;;;;;4.00;1.35;;;23.30;52.50;;;;;;4143446;28;20037;-56
2021/04/14 05:26:02;;;;;;;2.00;1.17;;;23.40;52.60;;;;;;4150581;28;20525;-57
2021/04/14 05:28:10;;;;;;;1.55;0.88;;;23.40;52.60;;;;;;4143128;28;20017;-60
2021/04/14 05:30:13;;;;;;;2.70;1.20;;;23.50;52.30;;;;;;4131805;28;20064;-55
2021/04/14 05:32:16;;;;;;;3.67;1.08;;;23.50;52.70;;;;;;4118597;28;20042;-59
2021/04/14 05:34:19;;;;;;;2.83;1.20;;;23.60;52.50;;;;;;4156185;28;20024;-58
2021/04/14 05:36:21;;;;;;;3.40;1.23;;;23.60;52.20;;;;;;4151204;28;20045;-60
2021/04/14 05:38:23;;;;;;;2.60;1.08;;;23.60;52.10;;;;;;4147268;28;20617;-54
2021/04/14 05:40:25;;;;;;;2.37;1.23;;;23.70;52.30;;;;;;4148378;28;20124;-59
2021/04/14 05:42:27;;;;;;;3.53;1.23;;;23.70;52.20;;;;;;4132259;28;20060;-59
2021/04/14 05:44:29;;;;;;;2.35;1.20;;;23.70;52.30;;;;;;4138393;28;20370;-59
2021/04/14 05:46:32;;;;;;;4.03;0.88;;;23.80;52.20;;;;;;4145263;28;20037;-59
2021/04/14 05:48:34;;;;;;;9.60;1.17;;;23.80;52.20;;;;;;4131548;28;20030;-60
2021/04/14 05:50:36;;;;;;;3.03;1.10;;;23.80;52.20;;;;;;4136686;28;20056;-59
2021/04/14 05:52:38;;;;;;;2.78;1.25;;;23.80;52.20;;;;;;4150393;28;20028;-60
2021/04/14 05:54:41;;;;;;;3.20;1.13;;;23.80;52.00;;;;;;4141361;28;20045;-58
2021/04/14 05:56:43;;;;;;;1.95;1.00;;;23.80;52.10;;;;;;4146661;28;20034;-58
2021/04/14 05:58:45;;;;;;;2.28;0.90;;;23.80;52.00;;;;;;4149692;28;20444;-55
2021/04/14 06:00:47;;;;;;;2.42;1.00;;;23.80;51.90;;;;;;4130641;28;20040;-57
2021/04/14 06:02:49;;;;;;;4.60;1.33;;;23.80;52.10;;;;;;4136990;28;20110;-60
2021/04/14 06:04:54;;;;;;;1.77;1.10;;;23.80;52.00;;;;;;4151720;28;20030;-59
2021/04/14 06:06:56;;;;;;;4.38;1.25;;;23.80;51.80;;;;;;4146563;28;20040;-58
2021/04/14 06:08:58;;;;;;;1.20;0.57;;;23.80;51.80;;;;;;4144768;28;20060;-59
2021/04/14 06:11:01;;;;;;;2.03;1.10;;;23.90;51.90;;;;;;4148005;28;20430;-58
2021/04/14 06:13:03;;;;;;;2.83;1.10;;;23.90;51.80;;;;;;4146545;28;20082;-58
2021/04/14 06:15:09;;;;;;;3.45;0.95;;;23.90;51.70;;;;;;4150273;28;20041;-59
2021/04/14 06:17:11;;;;;;;3.55;1.05;;;23.90;52.10;;;;;;4144958;28;20248;-59
2021/04/14 06:19:13;;;;;;;1.85;0.93;;;23.90;52.00;;;;;;4152563;28;20076;-58
2021/04/14 06:21:17;;;;;;;1.83;1.08;;;23.90;51.90;;;;;;4141710;28;20038;-56
2021/04/14 06:23:21;;;;;;;2.17;1.20;;;23.90;51.60;;;;;;4142230;28;20041;-56
2021/04/14 06:25:23;;;;;;;4.13;1.35;;;23.90;51.50;;;;;;4129451;28;20041;-59
2021/04/14 06:27:39;;;;;;;5.68;0.95;;;23.90;51.80;;;;;;4132891;28;20047;-58
2021/04/14 06:29:41;;;;;;;2.55;1.00;;;23.90;51.70;;;;;;4129179;28;20034;-53
2021/04/14 06:31:43;;;;;;;5.10;1.20;;;24.00;51.70;;;;;;4131550;28;20447;-60
2021/04/14 06:33:48;;;;;;;7.85;1.10;;;24.00;52.00;;;;;;4146124;28;20140;-56
2021/04/14 06:35:55;;;;;;;4.10;1.05;;;24.00;52.10;;;;;;4149156;28;20053;-56
2021/04/14 06:37:57;;;;;;;5.60;1.15;;;24.00;51.90;;;;;;4147500;28;20474;-55
2021/04/14 06:43:06;;;;;;;2.03;0.93;;;24.00;51.10;;;;;;4145487;28;20072;-57
2021/04/14 06:45:39;;;;;;;1.23;0.85;;;24.00;50.60;;;;;;4128618;28;20745;-57
2021/04/14 06:47:51;;;;;;;2.83;1.20;;;24.00;49.70;;;;;;4128009;28;20124;-59
2021/04/14 06:50:13;;;;;;;2.35;0.90;;;24.00;49.60;;;;;;4133079;28;20330;-57
2021/04/14 06:52:24;;;;;;;3.65;1.23;;;24.00;49.70;;;;;;4131874;28;20046;-58
2021/04/14 06:54:46;;;;;;;3.00;0.98;;;24.00;49.70;;;;;;4132126;28;20038;-58
2021/04/14 06:56:53;;;;;;;1.58;0.77;;;24.00;49.70;;;;;;4131758;28;20797;-51
2021/04/14 06:59:06;;;;;;;4.28;1.10;;;24.00;49.90;;;;;;4130139;28;20026;-56
2021/04/14 07:01:15;;;;;;;3.08;1.05;;;24.00;49.80;;;;;;4149873;28;20141;-54
2021/04/14 07:03:28;;;;;;;7.72;1.38;;;24.00;50.00;;;;;;4145954;28;20762;-57
2021/04/14 07:05:38;;;;;;;5.50;1.07;;;24.00;50.40;;;;;;4146578;28;20033;-55
2021/04/14 07:07:41;;;;;;;3.30;1.00;;;24.00;50.70;;;;;;4146852;28;20033;-55
2021/04/14 07:09:48;;;;;;;5.45;1.25;;;24.00;50.60;;;;;;4147079;28;20402;-59
2021/04/14 07:11:50;;;;;;;2.55;1.20;;;24.00;51.10;;;;;;4148310;28;20041;-59
2021/04/14 07:13:52;;;;;;;2.17;1.17;;;24.00;51.00;;;;;;4151626;28;20105;-59
2021/04/14 07:16:37;;;;;;;4.70;0.95;;;24.00;50.80;;;;;;4149514;28;20025;-58
2021/04/14 07:18:48;;;;;;;;;;;24.00;51.90;;;;;;4150075;28;20458;-58
2021/04/14 07:21:03;;;;;;;2.90;1.20;;;24.00;51.10;;;;;;4152039;28;19917;-55
2021/04/14 07:23:23;;;;;;;2.88;1.15;;;24.00;51.30;;;;;;4150521;28;20042;-55
2021/04/14 07:25:44;;;;;;;4.40;1.42;;;24.10;51.00;;;;;;4150005;28;20059;-57
2021/04/14 07:28:20;;;;;;;3.25;1.08;;;24.10;51.90;;;;;;4148477;28;20181;-55
2021/04/14 07:31:02;;;;;;;2.88;1.25;;;24.10;51.30;;;;;;4139802;28;20518;-58
2021/04/14 07:33:19;;;;;;;3.38;1.17;;;24.10;51.50;;;;;;4114784;28;20446;-58
2021/04/14 07:35:30;;;;;;;6.60;1.35;;;24.10;51.40;;;;;;4148772;28;20466;-59
2021/04/14 07:38:00;;;;;;;4.07;1.35;;;24.00;51.30;;;;;;4147223;28;20383;-58
2021/04/14 07:40:16;;;;;;;4.78;1.35;;;24.10;52.10;;;;;;4149173;28;20033;-58
2021/04/14 07:42:30;;;;;;;2.10;0.98;;;24.10;52.30;;;;;;4146517;28;20042;-59
2021/04/14 07:44:40;;;;;;;4.07;1.35;;;24.10;52.40;;;;;;4149340;28;20113;-53
2021/04/14 07:46:48;;;;;;;2.00;1.45;;;24.20;52.00;;;;;;4142801;28;20682;-54
2021/04/14 07:48:53;;;;;;;3.88;1.35;;;24.10;51.00;;;;;;4149446;28;20045;-58
2021/04/14 07:51:00;;;;;;;3.67;1.50;;;24.10;49.20;;;;;;4148629;28;20526;-50
2021/04/14 07:53:02;;;;;;;6.30;1.75;;;24.10;48.60;;;;;;4149040;28;20048;-51
2021/04/14 07:55:05;;;;;;;2.88;1.50;;;24.00;49.10;;;;;;4142076;28;20518;-49
2021/04/14 07:57:08;;;;;;;5.40;1.50;;;24.00;49.20;;;;;;4146590;28;20099;-47
2021/04/14 07:59:14;;;;;;;3.33;1.70;;;24.00;48.60;;;;;;4146298;28;20068;-52
2021/04/14 08:01:18;;;;;;;5.63;1.80;;;23.90;48.10;;;;;;4131071;28;20049;-51
2021/04/14 08:03:30;;;;;;;4.00;1.90;;;23.90;47.60;;;;;;4141868;28;20045;-49
2021/04/14 08:05:33;;;;;;;3.65;1.63;;;23.90;47.40;;;;;;4148573;28;20498;-52
2021/04/14 08:07:42;;;;;;;3.22;1.50;;;23.90;47.30;;;;;;4148864;28;20056;-51
2021/04/14 08:10:10;;;;;;;4.03;1.52;;;23.80;47.10;;;;;;4144648;28;20078;-49
2021/04/14 08:12:13;;;;;;;4.68;1.42;;;23.80;47.00;;;;;;4147134;28;20045;-48
2021/04/14 08:14:39;;;;;;;2.45;1.40;;;23.80;46.90;;;;;;4150215;28;20022;-51
2021/04/14 08:16:47;;;;;;;3.28;1.50;;;23.80;47.00;;;;;;4149380;28;20271;-49
2021/04/14 08:18:57;;;;;;;3.92;1.67;;;23.80;47.00;;;;;;4152069;28;20136;-51
2021/04/14 08:21:06;;;;;;;6.97;1.70;;;23.70;47.00;;;;;;4132587;28;20128;-51
2021/04/14 08:23:17;;;;;;;4.35;1.80;;;23.70;47.00;;;;;;4132825;28;20466;-51
2021/04/14 08:25:31;;;;;;;2.38;1.48;;;23.70;47.00;;;;;;4130734;28;20025;-49
2021/04/14 08:27:38;;;;;;;;;;;23.70;47.10;;;;;;4143098;28;20033;-50
2021/04/14 08:29:41;;;;;;;2.58;1.45;;;23.70;47.10;;;;;;4146062;28;20000;-50
2021/04/14 08:31:48;;;;;;;2.40;1.42;;;23.70;47.00;;;;;;4154918;28;20506;-48
2021/04/14 08:33:53;;;;;;;2.42;1.70;;;23.70;47.10;;;;;;4148694;28;20041;-47
2021/04/14 08:36:05;;;;;;;3.22;1.63;;;23.70;47.20;;;;;;4149895;28;20041;-52
2021/04/14 08:38:10;;;;;;;3.17;2.05;;;23.60;47.20;;;;;;4149942;28;20068;-47
2021/04/14 08:40:22;;;;;;;2.63;1.70;;;23.70;47.30;;;;;;4153338;28;20080;-49
2021/04/14 08:42:29;;;;;;;3.17;1.73;;;23.60;47.20;;;;;;4134815;28;20528;-52
2021/04/14 08:44:36;;;;;;;2.45;1.70;;;23.60;47.20;;;;;;4136205;28;20241;-54
2021/04/14 08:46:40;;;;;;;2.80;1.42;;;23.60;47.30;;;;;;4146941;28;20361;-52
2021/04/14 08:48:52;;;;;;;2.65;1.80;;;23.60;47.30;;;;;;4148752;28;20155;-49
2021/04/14 08:50:57;;;;;;;2.38;1.63;;;23.60;47.40;;;;;;4144422;28;20037;-47
2021/04/14 08:53:12;;;;;;;2.85;1.70;;;23.60;47.40;;;;;;4150268;28;20520;-52
2021/04/14 08:55:14;;;;;;;3.20;1.70;;;23.60;47.50;;;;;;4151326;28;20017;-49
2021/04/14 08:57:18;;;;;;;2.00;1.30;;;23.60;47.50;;;;;;4152420;28;20045;-47
2021/04/14 08:59:21;;;;;;;4.07;1.75;;;23.60;47.60;;;;;;4144826;28;20092;-51
2021/04/14 09:01:25;;;;;;;1.92;1.48;;;23.50;47.50;;;;;;4133027;28;20026;-50
2021/04/14 09:03:35;;;;;;;2.78;1.60;;;23.60;47.60;;;;;;4150941;28;20049;-49
2021/04/14 09:05:38;;;;;;;2.80;1.60;;;23.50;47.60;;;;;;4153867;28;20041;-50
2021/04/14 09:07:40;;;;;;;2.70;1.55;;;23.50;47.60;;;;;;4155871;28;20112;-51
2021/04/14 09:09:48;;;;;;;1.70;1.25;;;23.50;47.60;;;;;;4155886;28;20063;-48
2021/04/14 09:12:01;;;;;;;2.40;1.40;;;23.50;47.60;;;;;;4153948;28;20029;-49
2021/04/14 09:14:20;;;;;;;3.10;1.70;;;23.50;47.70;;;;;;4150957;28;20088;-49
2021/04/14 09:16:50;;;;;;;2.53;1.75;;;23.50;47.80;;;;;;4149849;28;20030;-53
2021/04/14 09:18:52;;;;;;;3.58;1.65;;;23.50;48.40;;;;;;4144545;28;20165;-47
2021/04/14 09:21:08;;;;;;;2.38;1.50;;;23.50;47.80;;;;;;4151852;28;20525;-51
2021/04/14 09:23:18;;;;;;;3.92;1.65;;;23.50;47.80;;;;;;4146760;28;20124;-54
2021/04/14 09:25:33;;;;;;;2.88;1.65;;;23.50;47.80;;;;;;4144635;28;20124;-53
2021/04/14 09:27:41;;;;;;;2.33;1.40;;;23.50;47.90;;;;;;4134441;28;20108;-50
2021/04/14 09:29:59;;;;;;;2.72;1.77;;;23.40;47.80;;;;;;4131740;28;20034;-48
2021/04/14 09:32:10;;;;;;;3.30;1.40;;;23.40;47.80;;;;;;4134045;28;20025;-53
2021/04/14 09:34:31;;;;;;;2.70;1.52;;;23.50;48.00;;;;;;4150694;28;20037;-49
2021/04/14 09:36:47;;;;;;;2.95;1.90;;;23.50;48.30;;;;;;4149691;28;20076;-49
2021/04/14 09:38:51;;;;;;;2.78;1.48;;;23.40;48.00;;;;;;4146830;28;20124;-54
2021/04/14 09:41:06;;;;;;;2.22;1.45;;;23.40;48.00;;;;;;4147994;28;20033;-53
2021/04/14 09:43:31;;;;;;;2.97;1.63;;;23.40;48.10;;;;;;4134630;28;20089;-48
2021/04/14 09:45:36;;;;;;;2.15;1.58;;;23.40;48.10;;;;;;4143241;28;20061;-52
2021/04/14 09:47:39;;;;;;;3.53;1.60;;;23.40;48.20;;;;;;4147122;28;20072;-52
2021/04/14 09:49:43;;;;;;;2.10;1.40;;;23.40;48.20;;;;;;4148708;28;20096;-52
2021/04/14 09:51:59;;;;;;;2.33;1.55;;;23.40;48.20;;;;;;4145179;28;20514;-53
2021/04/14 09:54:21;;;;;;;2.50;1.50;;;23.40;48.30;;;;;;4137919;28;20061;-51
2021/04/14 09:56:25;;;;;;;2.50;1.50;;;23.40;48.50;;;;;;4134094;28;20037;-50
2021/04/14 09:58:54;;;;;;;2.80;1.60;;;23.40;48.60;;;;;;4149447;28;20050;-50
2021/04/14 10:01:11;;;;;;;1.90;1.42;;;23.40;48.80;;;;;;4133296;28;20878;-52
2021/04/14 10:03:20;;;;;;;3.35;1.60;;;23.40;49.00;;;;;;4143808;28;20475;-48
2021/04/14 10:05:31;;;;;;;1.95;1.35;;;23.40;49.20;;;;;;4145617;28;20044;-50
2021/04/14 10:07:35;;;;;;;2.50;1.45;;;23.30;49.20;;;;;;4152812;28;20487;-51
2021/04/14 10:09:37;;;;;;;1.42;1.30;;;23.30;49.30;;;;;;4142668;28;20040;-49
2021/04/14 10:11:41;;;;;;;2.08;1.52;;;23.30;49.20;;;;;;4146250;28;20057;-47
2021/04/14 10:13:43;;;;;;;3.08;1.65;;;23.30;49.40;;;;;;4153634;28;20196;-47
2021/04/14 10:15:47;;;;;;;2.50;1.20;;;23.30;49.40;;;;;;4150779;28;20202;-53
2021/04/14 10:17:49;;;;;;;2.47;1.30;;;23.30;49.50;;;;;;4143915;28;20475;-47
2021/04/14 10:20:01;;;;;;;3.67;1.50;;;23.30;49.60;;;;;;4149666;28;20026;-49
2021/04/14 10:22:19;;;;;;;3.30;1.63;;;23.20;49.50;;;;;;4148787;28;20030;-50
2021/04/14 10:24:21;;;;;;;2.50;1.33;;;23.20;49.60;;;;;;4148804;28;20041;-49
2021/04/14 10:26:23;;;;;;;1.83;1.40;;;23.20;49.70;;;;;;4146182;28;20115;-48
2021/04/14 10:28:27;;;;;;;3.25;1.60;;;23.20;49.80;;;;;;4149016;28;20088;-49
2021/04/14 10:30:31;;;;;;;2.35;1.40;;;23.20;50.00;;;;;;4150189;28;20095;-48
2021/04/14 10:32:33;;;;;;;2.45;1.67;;;23.20;50.70;;;;;;4146425;28;20510;-49
2021/04/14 10:34:36;;;;;;;2.58;1.55;;;23.20;49.80;;;;;;4149097;28;20025;-53
2021/04/14 10:36:44;;;;;;;3.85;1.27;;;23.20;49.50;;;;;;4146544;28;20629;-49
2021/04/14 10:38:46;;;;;;;6.80;1.95;;;23.10;49.30;;;;;;4146939;28;20033;-57
2021/04/14 10:40:48;;;;;;;11.88;1.83;;;23.20;49.50;;;;;;4149492;28;20422;-55
2021/04/14 10:42:52;;;;;;;4.88;1.63;;;23.20;50.00;;;;;;4134509;28;20097;-55
2021/04/14 10:45:09;;;;;;;4.07;1.75;;;23.20;50.30;;;;;;4141157;28;20037;-54
2021/04/14 10:47:20;;;;;;;5.15;2.00;;;23.20;50.80;;;;;;4150451;28;20030;-59
2021/04/14 10:49:33;;;;;;;7.32;1.40;;;23.20;51.20;;;;;;4151875;28;20056;-58
2021/04/14 10:51:52;;;;;;;2.83;1.55;;;23.20;51.50;;;;;;4155650;28;20033;-60
2021/04/14 10:53:57;;;;;;;4.53;1.52;;;23.20;51.80;;;;;;4152338;28;20052;-59
2021/04/14 10:56:00;;;;;;;2.55;1.48;;;23.30;52.10;;;;;;4150295;28;20554;-58
2021/04/14 10:58:04;;;;;;;5.87;1.50;;;23.20;52.10;;;;;;4129751;28;20220;-57